sensor_id;sensor_type;location;lat;lon;timestamp;P1;P2;P0
47705;PMS5003;33471;52.104;1.318;2022-08-11T00:00:05;17;15;
47705;PMS5003;33471;52.104;1.318;2022-08-11T00:02:35;20;12;
47705;PMS5003;33471;52.104;1.318;2022-08-11T00:05:08;22;18;
47705;PMS5003;33471;52.104;1.318;2022-08-11T00:07:41;14;14;
47705;PMS5003;33471;52.104;1.318;2022-08-11T00:10:12;19;17;
47705;PMS5003;33471;52.104;1.318;2022-08-11T00:12:42;21;19;
47705;PMS5003;33471;52.104;1.318;2022-08-11T00:15:15;19;19;
47705;PMS5003;33471;52.104;1.318;2022-08-11T00:17:43;17;14;
47705;PMS5003;33471;52.104;1.318;2022-08-11T00:20:13;18;17;
47705;PMS5003;33471;52.104;1.318;2022-08-11T00:22:42;24;19;
47705;PMS5003;33471;52.104;1.318;2022-08-11T00:25:11;16;16;
47705;PMS5003;33471;52.104;1.318;2022-08-11T00:27:40;16;13;
47705;PMS5003;33471;52.104;1.318;2022-08-11T00:30:09;21;20;
47705;PMS5003;33471;52.104;1.318;2022-08-11T00:32:40;21;18;
47705;PMS5003;33471;52.104;1.318;2022-08-11T00:35:09;19;18;
47705;PMS5003;33471;52.104;1.318;2022-08-11T00:37:43;16;13;
47705;PMS5003;33471;52.104;1.318;2022-08-11T00:40:14;18;17;
47705;PMS5003;33471;52.104;1.318;2022-08-11T00:42:52;18;17;
47705;PMS5003;33471;52.104;1.318;2022-08-11T00:45:29;23;18;
47705;PMS5003;33471;52.104;1.318;2022-08-11T00:48:09;18;17;
47705;PMS5003;33471;52.104;1.318;2022-08-11T00:50:43;14;13;
47705;PMS5003;33471;52.104;1.318;2022-08-11T00:53:31;19;17;
47705;PMS5003;33471;52.104;1.318;2022-08-11T00:56:13;16;15;
47705;PMS5003;33471;52.104;1.318;2022-08-11T00:57:49;16;15;
47705;PMS5003;33471;52.104;1.318;2022-08-11T00:59:14;16;15;
47705;PMS5003;33471;52.104;1.318;2022-08-11T01:02:09;17;17;
47705;PMS5003;33471;52.104;1.318;2022-08-11T01:04:48;24;24;
47705;PMS5003;33471;52.104;1.318;2022-08-11T01:07:40;14;14;
47705;PMS5003;33471;52.104;1.318;2022-08-11T01:09:05;13;13;
47705;PMS5003;33471;52.104;1.318;2022-08-11T01:11:52;24;22;
47705;PMS5003;33471;52.104;1.318;2022-08-11T01:15:04;16;15;
47705;PMS5003;33471;52.104;1.318;2022-08-11T01:17:56;22;18;
47705;PMS5003;33471;52.104;1.318;2022-08-11T01:21:04;15;15;
47705;PMS5003;33471;52.104;1.318;2022-08-11T01:23:54;22;22;
47705;PMS5003;33471;52.104;1.318;2022-08-11T01:26:54;15;14;
47705;PMS5003;33471;52.104;1.318;2022-08-11T01:30:21;16;14;
47705;PMS5003;33471;52.104;1.318;2022-08-11T01:31:08;16;14;
47705;PMS5003;33471;52.104;1.318;2022-08-11T01:34:05;20;15;
47705;PMS5003;33471;52.104;1.318;2022-08-11T01:36:50;30;26;
47705;PMS5003;33471;52.104;1.318;2022-08-11T01:39:32;23;22;
47705;PMS5003;33471;52.104;1.318;2022-08-11T01:40:14;23;22;
47705;PMS5003;33471;52.104;1.318;2022-08-11T01:43:00;25;21;
47705;PMS5003;33471;52.104;1.318;2022-08-11T01:45:40;23;20;
47705;PMS5003;33471;52.104;1.318;2022-08-11T01:48:18;15;14;
47705;PMS5003;33471;52.104;1.318;2022-08-11T01:51:02;16;15;
47705;PMS5003;33471;52.104;1.318;2022-08-11T01:53:45;20;17;
47705;PMS5003;33471;52.104;1.318;2022-08-11T01:56:23;19;18;
47705;PMS5003;33471;52.104;1.318;2022-08-11T01:59:04;20;19;
47705;PMS5003;33471;52.104;1.318;2022-08-11T02:01:44;20;18;
47705;PMS5003;33471;52.104;1.318;2022-08-11T02:04:23;17;17;
47705;PMS5003;33471;52.104;1.318;2022-08-11T02:07:00;18;16;
47705;PMS5003;33471;52.104;1.318;2022-08-11T02:09:44;24;17;
47705;PMS5003;33471;52.104;1.318;2022-08-11T02:12:39;21;19;
47705;PMS5003;33471;52.104;1.318;2022-08-11T02:15:13;22;21;
47705;PMS5003;33471;52.104;1.318;2022-08-11T02:17:56;23;20;
47705;PMS5003;33471;52.104;1.318;2022-08-11T02:20:41;25;21;
47705;PMS5003;33471;52.104;1.318;2022-08-11T02:23:17;22;20;
47705;PMS5003;33471;52.104;1.318;2022-08-11T02:25:52;18;16;
47705;PMS5003;33471;52.104;1.318;2022-08-11T02:28:26;20;19;
47705;PMS5003;33471;52.104;1.318;2022-08-11T02:31:06;19;19;
47705;PMS5003;33471;52.104;1.318;2022-08-11T02:33:50;19;18;
47705;PMS5003;33471;52.104;1.318;2022-08-11T02:36:33;20;20;
47705;PMS5003;33471;52.104;1.318;2022-08-11T02:39:08;18;17;
47705;PMS5003;33471;52.104;1.318;2022-08-11T02:41:43;24;19;
47705;PMS5003;33471;52.104;1.318;2022-08-11T02:44:20;18;16;
47705;PMS5003;33471;52.104;1.318;2022-08-11T02:47:06;29;28;
47705;PMS5003;33471;52.104;1.318;2022-08-11T02:49:41;30;26;
47705;PMS5003;33471;52.104;1.318;2022-08-11T02:52:17;25;25;
47705;PMS5003;33471;52.104;1.318;2022-08-11T02:54:53;25;21;
47705;PMS5003;33471;52.104;1.318;2022-08-11T02:57:32;24;22;
47705;PMS5003;33471;52.104;1.318;2022-08-11T03:00:06;19;19;
47705;PMS5003;33471;52.104;1.318;2022-08-11T03:02:41;28;24;
47705;PMS5003;33471;52.104;1.318;2022-08-11T03:05:21;26;25;
47705;PMS5003;33471;52.104;1.318;2022-08-11T03:08:04;23;21;
47705;PMS5003;33471;52.104;1.318;2022-08-11T03:10:42;23;22;
47705;PMS5003;33471;52.104;1.318;2022-08-11T03:13:18;22;22;
47705;PMS5003;33471;52.104;1.318;2022-08-11T03:15:58;27;25;
47705;PMS5003;33471;52.104;1.318;2022-08-11T03:18:37;28;25;
47705;PMS5003;33471;52.104;1.318;2022-08-11T03:21:14;21;20;
47705;PMS5003;33471;52.104;1.318;2022-08-11T03:23:52;22;19;
47705;PMS5003;33471;52.104;1.318;2022-08-11T03:26:30;33;33;
47705;PMS5003;33471;52.104;1.318;2022-08-11T03:29:06;28;22;
47705;PMS5003;33471;52.104;1.318;2022-08-11T03:31:43;29;25;
47705;PMS5003;33471;52.104;1.318;2022-08-11T03:34:16;30;25;
47705;PMS5003;33471;52.104;1.318;2022-08-11T03:37:02;20;20;
47705;PMS5003;33471;52.104;1.318;2022-08-11T03:39:44;27;24;
47705;PMS5003;33471;52.104;1.318;2022-08-11T03:42:24;23;22;
47705;PMS5003;33471;52.104;1.318;2022-08-11T03:45:02;20;20;
47705;PMS5003;33471;52.104;1.318;2022-08-11T03:47:43;30;28;
47705;PMS5003;33471;52.104;1.318;2022-08-11T03:48:20;30;28;
47705;PMS5003;33471;52.104;1.318;2022-08-11T03:50:54;24;23;
47705;PMS5003;33471;52.104;1.318;2022-08-11T03:53:42;24;23;
47705;PMS5003;33471;52.104;1.318;2022-08-11T03:56:39;28;22;
47705;PMS5003;33471;52.104;1.318;2022-08-11T03:57:54;28;22;
47705;PMS5003;33471;52.104;1.318;2022-08-11T04:00:53;28;23;
47705;PMS5003;33471;52.104;1.318;2022-08-11T04:03:52;28;27;
47705;PMS5003;33471;52.104;1.318;2022-08-11T04:08:08;27;26;
47705;PMS5003;33471;52.104;1.318;2022-08-11T04:10:56;32;25;
47705;PMS5003;33471;52.104;1.318;2022-08-11T04:14:11;30;28;
47705;PMS5003;33471;52.104;1.318;2022-08-11T04:16:23;30;28;
47705;PMS5003;33471;52.104;1.318;2022-08-11T04:19:15;21;21;
47705;PMS5003;33471;52.104;1.318;2022-08-11T04:22:21;22;21;
47705;PMS5003;33471;52.104;1.318;2022-08-11T04:25:09;31;28;
47705;PMS5003;33471;52.104;1.318;2022-08-11T04:28:11;28;28;
47705;PMS5003;33471;52.104;1.318;2022-08-11T04:31:04;31;28;
47705;PMS5003;33471;52.104;1.318;2022-08-11T04:33:42;26;23;
47705;PMS5003;33471;52.104;1.318;2022-08-11T04:37:06;25;22;
47705;PMS5003;33471;52.104;1.318;2022-08-11T04:39:42;26;22;
47705;PMS5003;33471;52.104;1.318;2022-08-11T04:42:39;27;22;
47705;PMS5003;33471;52.104;1.318;2022-08-11T04:45:34;26;24;
47705;PMS5003;33471;52.104;1.318;2022-08-11T04:48:21;25;25;
47705;PMS5003;33471;52.104;1.318;2022-08-11T04:51:16;19;17;
47705;PMS5003;33471;52.104;1.318;2022-08-11T04:54:02;23;23;
47705;PMS5003;33471;52.104;1.318;2022-08-11T04:56:37;21;19;
47705;PMS5003;33471;52.104;1.318;2022-08-11T04:59:14;31;29;
47705;PMS5003;33471;52.104;1.318;2022-08-11T05:00:28;30;29;
47705;PMS5003;33471;52.104;1.318;2022-08-11T05:03:44;33;30;
47705;PMS5003;33471;52.104;1.318;2022-08-11T05:06:57;27;24;
47705;PMS5003;33471;52.104;1.318;2022-08-11T05:09:57;30;29;
47705;PMS5003;33471;52.104;1.318;2022-08-11T05:12:40;28;25;
47705;PMS5003;33471;52.104;1.318;2022-08-11T05:15:12;27;24;
47705;PMS5003;33471;52.104;1.318;2022-08-11T05:17:44;32;29;
47705;PMS5003;33471;52.104;1.318;2022-08-11T05:20:28;24;24;
47705;PMS5003;33471;52.104;1.318;2022-08-11T05:22:56;31;29;
47705;PMS5003;33471;52.104;1.318;2022-08-11T05:25:33;37;32;
47705;PMS5003;33471;52.104;1.318;2022-08-11T05:28:02;28;26;
47705;PMS5003;33471;52.104;1.318;2022-08-11T05:30:35;34;32;
47705;PMS5003;33471;52.104;1.318;2022-08-11T05:33:08;28;26;
47705;PMS5003;33471;52.104;1.318;2022-08-11T05:35:42;21;21;
47705;PMS5003;33471;52.104;1.318;2022-08-11T05:38:12;23;20;
47705;PMS5003;33471;52.104;1.318;2022-08-11T05:40:46;26;25;
47705;PMS5003;33471;52.104;1.318;2022-08-11T05:43:15;27;26;
47705;PMS5003;33471;52.104;1.318;2022-08-11T05:45:43;22;19;
47705;PMS5003;33471;52.104;1.318;2022-08-11T05:48:21;24;23;
47705;PMS5003;33471;52.104;1.318;2022-08-11T05:50:59;29;27;
47705;PMS5003;33471;52.104;1.318;2022-08-11T05:53:28;22;22;
47705;PMS5003;33471;52.104;1.318;2022-08-11T05:55:55;16;16;
47705;PMS5003;33471;52.104;1.318;2022-08-11T05:58:25;26;20;
47705;PMS5003;33471;52.104;1.318;2022-08-11T06:01:00;22;22;
47705;PMS5003;33471;52.104;1.318;2022-08-11T06:03:28;28;24;
47705;PMS5003;33471;52.104;1.318;2022-08-11T06:05:58;31;30;
47705;PMS5003;33471;52.104;1.318;2022-08-11T06:08:27;32;29;
47705;PMS5003;33471;52.104;1.318;2022-08-11T06:11:01;24;21;
47705;PMS5003;33471;52.104;1.318;2022-08-11T06:13:30;26;25;
47705;PMS5003;33471;52.104;1.318;2022-08-11T06:15:58;17;17;
47705;PMS5003;33471;52.104;1.318;2022-08-11T06:18:26;24;23;
47705;PMS5003;33471;52.104;1.318;2022-08-11T06:20:55;28;27;
47705;PMS5003;33471;52.104;1.318;2022-08-11T06:23:24;30;29;
47705;PMS5003;33471;52.104;1.318;2022-08-11T06:25:57;26;24;
47705;PMS5003;33471;52.104;1.318;2022-08-11T06:28:28;34;26;
47705;PMS5003;33471;52.104;1.318;2022-08-11T06:30:58;31;28;
47705;PMS5003;33471;52.104;1.318;2022-08-11T06:33:29;27;26;
47705;PMS5003;33471;52.104;1.318;2022-08-11T06:36:02;32;28;
47705;PMS5003;33471;52.104;1.318;2022-08-11T06:38:47;23;23;
47705;PMS5003;33471;52.104;1.318;2022-08-11T06:41:27;32;29;
47705;PMS5003;33471;52.104;1.318;2022-08-11T06:44:04;26;23;
47705;PMS5003;33471;52.104;1.318;2022-08-11T06:46:41;19;19;
47705;PMS5003;33471;52.104;1.318;2022-08-11T06:49:13;27;27;
47705;PMS5003;33471;52.104;1.318;2022-08-11T06:51:46;27;24;
47705;PMS5003;33471;52.104;1.318;2022-08-11T06:54:14;26;24;
47705;PMS5003;33471;52.104;1.318;2022-08-11T06:56:41;22;22;
47705;PMS5003;33471;52.104;1.318;2022-08-11T06:59:12;21;20;
47705;PMS5003;33471;52.104;1.318;2022-08-11T07:01:43;24;19;
47705;PMS5003;33471;52.104;1.318;2022-08-11T07:04:23;25;25;
47705;PMS5003;33471;52.104;1.318;2022-08-11T07:07:12;26;21;
47705;PMS5003;33471;52.104;1.318;2022-08-11T07:10:26;26;26;
47705;PMS5003;33471;52.104;1.318;2022-08-11T07:13:10;22;21;
47705;PMS5003;33471;52.104;1.318;2022-08-11T07:15:40;22;20;
47705;PMS5003;33471;52.104;1.318;2022-08-11T07:18:10;25;18;
47705;PMS5003;33471;52.104;1.318;2022-08-11T07:20:43;19;19;
47705;PMS5003;33471;52.104;1.318;2022-08-11T07:23:11;25;25;
47705;PMS5003;33471;52.104;1.318;2022-08-11T07:25:41;16;16;
47705;PMS5003;33471;52.104;1.318;2022-08-11T07:28:14;16;16;
47705;PMS5003;33471;52.104;1.318;2022-08-11T07:30:47;23;22;
47705;PMS5003;33471;52.104;1.318;2022-08-11T07:33:18;16;16;
47705;PMS5003;33471;52.104;1.318;2022-08-11T07:35:55;17;16;
47705;PMS5003;33471;52.104;1.318;2022-08-11T07:38:30;15;12;
47705;PMS5003;33471;52.104;1.318;2022-08-11T07:41:06;15;15;
47705;PMS5003;33471;52.104;1.318;2022-08-11T07:43:34;13;13;
47705;PMS5003;33471;52.104;1.318;2022-08-11T07:46:03;12;12;
47705;PMS5003;33471;52.104;1.318;2022-08-11T07:48:31;16;16;
47705;PMS5003;33471;52.104;1.318;2022-08-11T07:51:00;15;14;
47705;PMS5003;33471;52.104;1.318;2022-08-11T07:53:29;14;13;
47705;PMS5003;33471;52.104;1.318;2022-08-11T07:55:58;12;11;
47705;PMS5003;33471;52.104;1.318;2022-08-11T07:58:27;14;14;
47705;PMS5003;33471;52.104;1.318;2022-08-11T08:00:56;21;18;
47705;PMS5003;33471;52.104;1.318;2022-08-11T08:03:24;17;17;
47705;PMS5003;33471;52.104;1.318;2022-08-11T08:05:53;12;12;
47705;PMS5003;33471;52.104;1.318;2022-08-11T08:08:21;11;11;
47705;PMS5003;33471;52.104;1.318;2022-08-11T08:10:49;19;18;
47705;PMS5003;33471;52.104;1.318;2022-08-11T08:13:17;18;18;
47705;PMS5003;33471;52.104;1.318;2022-08-11T08:15:44;18;17;
47705;PMS5003;33471;52.104;1.318;2022-08-11T08:18:12;11;11;
47705;PMS5003;33471;52.104;1.318;2022-08-11T08:20:43;15;13;
47705;PMS5003;33471;52.104;1.318;2022-08-11T08:23:11;17;12;
47705;PMS5003;33471;52.104;1.318;2022-08-11T08:25:40;14;12;
47705;PMS5003;33471;52.104;1.318;2022-08-11T08:28:10;11;10;
47705;PMS5003;33471;52.104;1.318;2022-08-11T08:30:41;10;10;
47705;PMS5003;33471;52.104;1.318;2022-08-11T08:33:10;6;6;
47705;PMS5003;33471;52.104;1.318;2022-08-11T08:35:40;15;15;
47705;PMS5003;33471;52.104;1.318;2022-08-11T08:38:07;9;8;
47705;PMS5003;33471;52.104;1.318;2022-08-11T08:40:35;13;12;
47705;PMS5003;33471;52.104;1.318;2022-08-11T08:43:08;11;11;
47705;PMS5003;33471;52.104;1.318;2022-08-11T08:45:39;10;10;
47705;PMS5003;33471;52.104;1.318;2022-08-11T08:48:09;8;7;
47705;PMS5003;33471;52.104;1.318;2022-08-11T08:50:42;8;7;
47705;PMS5003;33471;52.104;1.318;2022-08-11T08:53:13;14;14;
47705;PMS5003;33471;52.104;1.318;2022-08-11T08:55:42;10;10;
47705;PMS5003;33471;52.104;1.318;2022-08-11T08:58:12;8;8;
47705;PMS5003;33471;52.104;1.318;2022-08-11T09:00:43;10;8;
47705;PMS5003;33471;52.104;1.318;2022-08-11T09:03:12;7;7;
47705;PMS5003;33471;52.104;1.318;2022-08-11T09:05:40;8;6;
47705;PMS5003;33471;52.104;1.318;2022-08-11T09:08:07;10;10;
47705;PMS5003;33471;52.104;1.318;2022-08-11T09:10:37;10;9;
47705;PMS5003;33471;52.104;1.318;2022-08-11T09:13:05;7;7;
47705;PMS5003;33471;52.104;1.318;2022-08-11T09:15:32;10;8;
47705;PMS5003;33471;52.104;1.318;2022-08-11T09:18:00;7;7;
47705;PMS5003;33471;52.104;1.318;2022-08-11T09:20:29;8;7;
47705;PMS5003;33471;52.104;1.318;2022-08-11T09:23:01;9;9;
47705;PMS5003;33471;52.104;1.318;2022-08-11T09:25:30;8;7;
47705;PMS5003;33471;52.104;1.318;2022-08-11T09:27:59;8;8;
47705;PMS5003;33471;52.104;1.318;2022-08-11T09:30:27;7;7;
47705;PMS5003;33471;52.104;1.318;2022-08-11T09:32:56;6;6;
47705;PMS5003;33471;52.104;1.318;2022-08-11T09:35:27;8;8;
47705;PMS5003;33471;52.104;1.318;2022-08-11T09:37:56;8;8;
47705;PMS5003;33471;52.104;1.318;2022-08-11T09:40:26;8;8;
47705;PMS5003;33471;52.104;1.318;2022-08-11T09:42:53;7;7;
47705;PMS5003;33471;52.104;1.318;2022-08-11T09:45:21;9;8;
47705;PMS5003;33471;52.104;1.318;2022-08-11T09:47:50;10;9;
47705;PMS5003;33471;52.104;1.318;2022-08-11T09:50:17;6;6;
47705;PMS5003;33471;52.104;1.318;2022-08-11T09:52:46;8;8;
47705;PMS5003;33471;52.104;1.318;2022-08-11T09:55:15;7;5;
47705;PMS5003;33471;52.104;1.318;2022-08-11T09:57:44;7;7;
47705;PMS5003;33471;52.104;1.318;2022-08-11T10:00:12;9;9;
47705;PMS5003;33471;52.104;1.318;2022-08-11T10:02:42;8;8;
47705;PMS5003;33471;52.104;1.318;2022-08-11T10:05:13;7;7;
47705;PMS5003;33471;52.104;1.318;2022-08-11T10:07:43;8;8;
47705;PMS5003;33471;52.104;1.318;2022-08-11T10:10:12;10;9;
47705;PMS5003;33471;52.104;1.318;2022-08-11T10:12:41;6;6;
47705;PMS5003;33471;52.104;1.318;2022-08-11T10:15:14;11;11;
47705;PMS5003;33471;52.104;1.318;2022-08-11T10:17:45;6;6;
47705;PMS5003;33471;52.104;1.318;2022-08-11T10:20:14;7;6;
47705;PMS5003;33471;52.104;1.318;2022-08-11T10:22:42;8;6;
47705;PMS5003;33471;52.104;1.318;2022-08-11T10:25:09;6;6;
47705;PMS5003;33471;52.104;1.318;2022-08-11T10:27:39;7;7;
47705;PMS5003;33471;52.104;1.318;2022-08-11T10:30:09;7;6;
47705;PMS5003;33471;52.104;1.318;2022-08-11T10:32:37;9;7;
47705;PMS5003;33471;52.104;1.318;2022-08-11T10:35:05;7;7;
47705;PMS5003;33471;52.104;1.318;2022-08-11T10:37:35;7;7;
47705;PMS5003;33471;52.104;1.318;2022-08-11T10:40:03;6;4;
47705;PMS5003;33471;52.104;1.318;2022-08-11T10:42:32;5;5;
47705;PMS5003;33471;52.104;1.318;2022-08-11T10:45:00;7;7;
47705;PMS5003;33471;52.104;1.318;2022-08-11T10:47:30;7;5;
47705;PMS5003;33471;52.104;1.318;2022-08-11T10:49:57;6;6;
47705;PMS5003;33471;52.104;1.318;2022-08-11T10:52:25;6;6;
47705;PMS5003;33471;52.104;1.318;2022-08-11T10:54:54;7;7;
47705;PMS5003;33471;52.104;1.318;2022-08-11T10:57:22;5;5;
47705;PMS5003;33471;52.104;1.318;2022-08-11T10:59:50;3;3;
47705;PMS5003;33471;52.104;1.318;2022-08-11T11:02:18;5;5;
47705;PMS5003;33471;52.104;1.318;2022-08-11T11:04:51;2;2;
47705;PMS5003;33471;52.104;1.318;2022-08-11T11:07:30;9;7;
47705;PMS5003;33471;52.104;1.318;2022-08-11T11:10:04;6;6;
47705;PMS5003;33471;52.104;1.318;2022-08-11T11:12:33;7;7;
47705;PMS5003;33471;52.104;1.318;2022-08-11T11:15:05;6;6;
47705;PMS5003;33471;52.104;1.318;2022-08-11T11:17:35;5;5;
47705;PMS5003;33471;52.104;1.318;2022-08-11T11:20:06;6;5;
47705;PMS5003;33471;52.104;1.318;2022-08-11T11:22:34;8;6;
47705;PMS5003;33471;52.104;1.318;2022-08-11T11:25:04;5;5;
47705;PMS5003;33471;52.104;1.318;2022-08-11T11:27:47;8;6;
47705;PMS5003;33471;52.104;1.318;2022-08-11T11:30:23;8;6;
47705;PMS5003;33471;52.104;1.318;2022-08-11T11:33:01;7;7;
47705;PMS5003;33471;52.104;1.318;2022-08-11T11:35:39;7;7;
47705;PMS5003;33471;52.104;1.318;2022-08-11T11:38:15;6;6;
47705;PMS5003;33471;52.104;1.318;2022-08-11T11:40:43;5;5;
47705;PMS5003;33471;52.104;1.318;2022-08-11T11:43:10;6;6;
47705;PMS5003;33471;52.104;1.318;2022-08-11T11:45:39;6;6;
47705;PMS5003;33471;52.104;1.318;2022-08-11T11:48:07;5;5;
47705;PMS5003;33471;52.104;1.318;2022-08-11T11:50:36;4;4;
47705;PMS5003;33471;52.104;1.318;2022-08-11T11:53:05;5;5;
47705;PMS5003;33471;52.104;1.318;2022-08-11T11:55:33;6;6;
47705;PMS5003;33471;52.104;1.318;2022-08-11T11:58:02;7;6;
47705;PMS5003;33471;52.104;1.318;2022-08-11T12:00:30;9;9;
47705;PMS5003;33471;52.104;1.318;2022-08-11T12:02:59;5;5;
47705;PMS5003;33471;52.104;1.318;2022-08-11T12:05:28;5;5;
47705;PMS5003;33471;52.104;1.318;2022-08-11T12:07:59;4;4;
47705;PMS5003;33471;52.104;1.318;2022-08-11T12:10:28;6;6;
47705;PMS5003;33471;52.104;1.318;2022-08-11T12:12:58;5;5;
47705;PMS5003;33471;52.104;1.318;2022-08-11T12:15:27;5;5;
47705;PMS5003;33471;52.104;1.318;2022-08-11T12:17:55;4;4;
47705;PMS5003;33471;52.104;1.318;2022-08-11T12:20:23;4;4;
47705;PMS5003;33471;52.104;1.318;2022-08-11T12:22:51;3;3;
47705;PMS5003;33471;52.104;1.318;2022-08-11T12:25:20;4;4;
47705;PMS5003;33471;52.104;1.318;2022-08-11T12:27:48;4;2;
47705;PMS5003;33471;52.104;1.318;2022-08-11T12:30:18;5;5;
47705;PMS5003;33471;52.104;1.318;2022-08-11T12:32:46;4;4;
47705;PMS5003;33471;52.104;1.318;2022-08-11T12:35:14;6;6;
47705;PMS5003;33471;52.104;1.318;2022-08-11T12:37:43;7;7;
47705;PMS5003;33471;52.104;1.318;2022-08-11T12:40:13;4;4;
47705;PMS5003;33471;52.104;1.318;2022-08-11T12:42:44;4;4;
47705;PMS5003;33471;52.104;1.318;2022-08-11T12:45:13;4;4;
47705;PMS5003;33471;52.104;1.318;2022-08-11T12:47:41;5;5;
47705;PMS5003;33471;52.104;1.318;2022-08-11T12:50:12;4;4;
47705;PMS5003;33471;52.104;1.318;2022-08-11T12:52:42;6;6;
47705;PMS5003;33471;52.104;1.318;2022-08-11T12:55:15;5;5;
47705;PMS5003;33471;52.104;1.318;2022-08-11T12:57:45;5;5;
47705;PMS5003;33471;52.104;1.318;2022-08-11T13:00:13;6;5;
47705;PMS5003;33471;52.104;1.318;2022-08-11T13:02:42;4;4;
47705;PMS5003;33471;52.104;1.318;2022-08-11T13:05:12;5;5;
47705;PMS5003;33471;52.104;1.318;2022-08-11T13:07:41;6;5;
47705;PMS5003;33471;52.104;1.318;2022-08-11T13:10:11;6;6;
47705;PMS5003;33471;52.104;1.318;2022-08-11T13:12:40;5;5;
47705;PMS5003;33471;52.104;1.318;2022-08-11T13:15:08;3;3;
47705;PMS5003;33471;52.104;1.318;2022-08-11T13:17:39;4;4;
47705;PMS5003;33471;52.104;1.318;2022-08-11T13:20:09;3;3;
47705;PMS5003;33471;52.104;1.318;2022-08-11T13:22:38;5;5;
47705;PMS5003;33471;52.104;1.318;2022-08-11T13:25:08;4;4;
47705;PMS5003;33471;52.104;1.318;2022-08-11T13:27:36;3;3;
47705;PMS5003;33471;52.104;1.318;2022-08-11T13:30:04;4;4;
47705;PMS5003;33471;52.104;1.318;2022-08-11T13:32:31;4;4;
47705;PMS5003;33471;52.104;1.318;2022-08-11T13:34:59;4;4;
47705;PMS5003;33471;52.104;1.318;2022-08-11T13:37:26;5;5;
47705;PMS5003;33471;52.104;1.318;2022-08-11T13:39:53;4;4;
47705;PMS5003;33471;52.104;1.318;2022-08-11T13:42:21;4;4;
47705;PMS5003;33471;52.104;1.318;2022-08-11T13:44:48;5;5;
47705;PMS5003;33471;52.104;1.318;2022-08-11T13:47:16;6;5;
47705;PMS5003;33471;52.104;1.318;2022-08-11T13:49:44;6;5;
47705;PMS5003;33471;52.104;1.318;2022-08-11T13:52:12;3;3;
47705;PMS5003;33471;52.104;1.318;2022-08-11T13:54:42;4;4;
47705;PMS5003;33471;52.104;1.318;2022-08-11T13:57:12;5;5;
47705;PMS5003;33471;52.104;1.318;2022-08-11T13:59:41;4;4;
47705;PMS5003;33471;52.104;1.318;2022-08-11T14:02:11;6;6;
47705;PMS5003;33471;52.104;1.318;2022-08-11T14:04:42;2;2;
47705;PMS5003;33471;52.104;1.318;2022-08-11T14:07:13;3;3;
47705;PMS5003;33471;52.104;1.318;2022-08-11T14:09:45;4;4;
47705;PMS5003;33471;52.104;1.318;2022-08-11T14:12:16;5;5;
47705;PMS5003;33471;52.104;1.318;2022-08-11T14:14:55;5;4;
47705;PMS5003;33471;52.104;1.318;2022-08-11T14:17:27;6;5;
47705;PMS5003;33471;52.104;1.318;2022-08-11T14:19:57;4;4;
47705;PMS5003;33471;52.104;1.318;2022-08-11T14:22:32;5;5;
47705;PMS5003;33471;52.104;1.318;2022-08-11T14:25:01;6;6;
47705;PMS5003;33471;52.104;1.318;2022-08-11T14:27:29;5;3;
47705;PMS5003;33471;52.104;1.318;2022-08-11T14:29:57;4;4;
47705;PMS5003;33471;52.104;1.318;2022-08-11T14:32:25;5;4;
47705;PMS5003;33471;52.104;1.318;2022-08-11T14:34:52;5;5;
47705;PMS5003;33471;52.104;1.318;2022-08-11T14:37:21;4;4;
47705;PMS5003;33471;52.104;1.318;2022-08-11T14:39:52;4;4;
47705;PMS5003;33471;52.104;1.318;2022-08-11T14:42:22;5;5;
47705;PMS5003;33471;52.104;1.318;2022-08-11T14:44:51;5;3;
47705;PMS5003;33471;52.104;1.318;2022-08-11T14:47:21;4;4;
47705;PMS5003;33471;52.104;1.318;2022-08-11T14:49:50;4;4;
47705;PMS5003;33471;52.104;1.318;2022-08-11T14:52:19;2;2;
47705;PMS5003;33471;52.104;1.318;2022-08-11T14:54:49;3;3;
47705;PMS5003;33471;52.104;1.318;2022-08-11T14:57:19;4;4;
47705;PMS5003;33471;52.104;1.318;2022-08-11T14:59:47;6;6;
47705;PMS5003;33471;52.104;1.318;2022-08-11T15:02:17;3;3;
47705;PMS5003;33471;52.104;1.318;2022-08-11T15:04:45;10;10;
47705;PMS5003;33471;52.104;1.318;2022-08-11T15:07:13;3;3;
47705;PMS5003;33471;52.104;1.318;2022-08-11T15:09:41;3;3;
47705;PMS5003;33471;52.104;1.318;2022-08-11T15:12:10;4;4;
47705;PMS5003;33471;52.104;1.318;2022-08-11T15:14:39;6;5;
47705;PMS5003;33471;52.104;1.318;2022-08-11T15:17:08;3;3;
47705;PMS5003;33471;52.104;1.318;2022-08-11T15:19:38;2;2;
47705;PMS5003;33471;52.104;1.318;2022-08-11T15:22:08;4;4;
47705;PMS5003;33471;52.104;1.318;2022-08-11T15:24:36;4;4;
47705;PMS5003;33471;52.104;1.318;2022-08-11T15:27:05;5;5;
47705;PMS5003;33471;52.104;1.318;2022-08-11T15:29:38;3;2;
47705;PMS5003;33471;52.104;1.318;2022-08-11T15:32:08;4;4;
47705;PMS5003;33471;52.104;1.318;2022-08-11T15:34:37;3;3;
47705;PMS5003;33471;52.104;1.318;2022-08-11T15:37:06;5;5;
47705;PMS5003;33471;52.104;1.318;2022-08-11T15:39:38;4;4;
47705;PMS5003;33471;52.104;1.318;2022-08-11T15:42:13;4;4;
47705;PMS5003;33471;52.104;1.318;2022-08-11T15:44:42;5;4;
47705;PMS5003;33471;52.104;1.318;2022-08-11T15:47:19;4;4;
47705;PMS5003;33471;52.104;1.318;2022-08-11T15:49:53;3;3;
47705;PMS5003;33471;52.104;1.318;2022-08-11T15:52:24;4;4;
47705;PMS5003;33471;52.104;1.318;2022-08-11T15:54:58;4;4;
47705;PMS5003;33471;52.104;1.318;2022-08-11T15:57:30;4;4;
47705;PMS5003;33471;52.104;1.318;2022-08-11T15:59:58;5;5;
47705;PMS5003;33471;52.104;1.318;2022-08-11T16:02:26;5;5;
47705;PMS5003;33471;52.104;1.318;2022-08-11T16:04:54;6;6;
47705;PMS5003;33471;52.104;1.318;2022-08-11T16:07:25;4;4;
47705;PMS5003;33471;52.104;1.318;2022-08-11T16:09:56;5;5;
47705;PMS5003;33471;52.104;1.318;2022-08-11T16:12:28;5;5;
47705;PMS5003;33471;52.104;1.318;2022-08-11T16:14:58;2;2;
47705;PMS5003;33471;52.104;1.318;2022-08-11T16:17:29;1;1;
47705;PMS5003;33471;52.104;1.318;2022-08-11T16:19:59;4;4;
47705;PMS5003;33471;52.104;1.318;2022-08-11T16:22:29;6;6;
47705;PMS5003;33471;52.104;1.318;2022-08-11T16:25:00;4;3;
47705;PMS5003;33471;52.104;1.318;2022-08-11T16:27:30;6;5;
47705;PMS5003;33471;52.104;1.318;2022-08-11T16:30:02;6;4;
47705;PMS5003;33471;52.104;1.318;2022-08-11T16:32:31;2;2;
47705;PMS5003;33471;52.104;1.318;2022-08-11T16:35:02;2;2;
47705;PMS5003;33471;52.104;1.318;2022-08-11T16:37:32;4;4;
47705;PMS5003;33471;52.104;1.318;2022-08-11T16:40:01;5;5;
47705;PMS5003;33471;52.104;1.318;2022-08-11T16:42:29;6;5;
47705;PMS5003;33471;52.104;1.318;2022-08-11T16:44:57;5;5;
47705;PMS5003;33471;52.104;1.318;2022-08-11T16:47:26;6;6;
47705;PMS5003;33471;52.104;1.318;2022-08-11T16:49:54;4;4;
47705;PMS5003;33471;52.104;1.318;2022-08-11T16:52:23;4;4;
47705;PMS5003;33471;52.104;1.318;2022-08-11T16:54:50;4;4;
47705;PMS5003;33471;52.104;1.318;2022-08-11T16:57:20;4;4;
47705;PMS5003;33471;52.104;1.318;2022-08-11T16:59:50;5;5;
47705;PMS5003;33471;52.104;1.318;2022-08-11T17:02:20;4;4;
47705;PMS5003;33471;52.104;1.318;2022-08-11T17:04:51;4;4;
47705;PMS5003;33471;52.104;1.318;2022-08-11T17:07:21;5;4;